LOWI/INN METAR and TAF weather

Enter ICAO airport designator
Station Type Date Time Source
LOWI METAR 2020/06/05 23:50 UTC NOAA

LOWI 052350Z AUTO VRB02KT 9999 FEW060 OVC110 13/09 Q1005


Station Type Date Time Source
LOWI Decoded METAR 2020/06/05 23:50 UTC NOAA

Innsbruck-Flughafen, Austria (LOWI) 47-16N 011-21E 593M
Jun 05, 2020 - 07:50 PM EDT / 2020.06.05 2350 UTC
Wind: Variable at 2 MPH (2 KT):0
Visibility: greater than 7 mile(s):0
Sky conditions: overcast
Temperature: 55 F (13 C)
Dew Point: 48 F (9 C)
Relative Humidity: 76%
Pressure (altimeter): 29.68 in. Hg (1005 hPa)
ob: LOWI 052350Z AUTO VRB02KT 9999 FEW060 OVC110 13/09 Q1005
cycle: 0

Station Type Date Time Source
LOWI TAF 2020/06/05 18:21 UTC NOAA

TAF LOWI 051715Z 0518/0618 09010KT 9999 FEW060 SCT100 TX22/0613Z TN11/0602Z
BECMG 0519/0521 27005KT CAVOK
BECMG 0609/0611 09010KT 9999 FEW060CB
TEMPO 0612/0618 27012G25KT TSRA

Example: see airport list